sensor_id;sensor_type;location;lat;lon;timestamp;temperature;humidity
15105;DHT22;7653;48.994;9.212;2023-01-25T00:02:02;2.60;79.70
15105;DHT22;7653;48.994;9.212;2023-01-25T00:04:28;2.50;80.20
15105;DHT22;7653;48.994;9.212;2023-01-25T00:06:54;2.50;80.10
15105;DHT22;7653;48.994;9.212;2023-01-25T00:09:21;2.60;80.40
15105;DHT22;7653;48.994;9.212;2023-01-25T00:11:46;2.60;80.10
15105;DHT22;7653;48.994;9.212;2023-01-25T00:14:13;2.60;79.60
15105;DHT22;7653;48.994;9.212;2023-01-25T00:16:40;2.60;80.70
15105;DHT22;7653;48.994;9.212;2023-01-25T00:19:06;2.70;79.00
15105;DHT22;7653;48.994;9.212;2023-01-25T00:21:33;2.60;79.60
15105;DHT22;7653;48.994;9.212;2023-01-25T00:23:59;2.60;79.50
15105;DHT22;7653;48.994;9.212;2023-01-25T00:26:25;2.70;79.10
15105;DHT22;7653;48.994;9.212;2023-01-25T00:28:52;2.70;79.00
15105;DHT22;7653;48.994;9.212;2023-01-25T00:37:00;2.50;80.70
15105;DHT22;7653;48.994;9.212;2023-01-25T00:39:27;2.40;81.00
15105;DHT22;7653;48.994;9.212;2023-01-25T00:41:53;2.40;82.30
15105;DHT22;7653;48.994;9.212;2023-01-25T00:44:19;2.40;81.50
15105;DHT22;7653;48.994;9.212;2023-01-25T00:46:44;2.40;81.80
15105;DHT22;7653;48.994;9.212;2023-01-25T00:49:25;2.50;82.40
15105;DHT22;7653;48.994;9.212;2023-01-25T00:51:51;2.50;81.00
15105;DHT22;7653;48.994;9.212;2023-01-25T00:54:18;2.50;79.40
15105;DHT22;7653;48.994;9.212;2023-01-25T00:56:44;2.50;81.00
15105;DHT22;7653;48.994;9.212;2023-01-25T00:59:10;2.40;80.90
15105;DHT22;7653;48.994;9.212;2023-01-25T01:01:36;2.40;80.50
15105;DHT22;7653;48.994;9.212;2023-01-25T01:04:01;2.40;81.80
15105;DHT22;7653;48.994;9.212;2023-01-25T01:06:27;2.40;82.20
15105;DHT22;7653;48.994;9.212;2023-01-25T01:08:53;2.30;82.20
15105;DHT22;7653;48.994;9.212;2023-01-25T01:11:18;2.30;82.20
15105;DHT22;7653;48.994;9.212;2023-01-25T01:13:44;2.20;82.10
15105;DHT22;7653;48.994;9.212;2023-01-25T01:16:11;2.30;82.20
15105;DHT22;7653;48.994;9.212;2023-01-25T01:18:42;2.40;82.30
15105;DHT22;7653;48.994;9.212;2023-01-25T01:21:08;2.30;82.20
15105;DHT22;7653;48.994;9.212;2023-01-25T01:23:34;2.30;82.20
15105;DHT22;7653;48.994;9.212;2023-01-25T01:26:01;2.40;82.30
15105;DHT22;7653;48.994;9.212;2023-01-25T01:28:31;2.50;82.40
15105;DHT22;7653;48.994;9.212;2023-01-25T01:31:07;2.40;82.30
15105;DHT22;7653;48.994;9.212;2023-01-25T01:33:33;2.40;82.90
15105;DHT22;7653;48.994;9.212;2023-01-25T01:36:09;2.40;82.30
15105;DHT22;7653;48.994;9.212;2023-01-25T01:38:35;2.30;82.20
15105;DHT22;7653;48.994;9.212;2023-01-25T01:41:01;2.40;82.30
15105;DHT22;7653;48.994;9.212;2023-01-25T01:43:26;2.30;81.20
15105;DHT22;7653;48.994;9.212;2023-01-25T01:50:55;2.30;83.40
15105;DHT22;7653;48.994;9.212;2023-01-25T01:53:23;2.20;84.20
15105;DHT22;7653;48.994;9.212;2023-01-25T01:55:51;2.20;86.20
15105;DHT22;7653;48.994;9.212;2023-01-25T01:58:17;2.20;85.70
15105;DHT22;7653;48.994;9.212;2023-01-25T02:00:43;2.20;85.90
15105;DHT22;7653;48.994;9.212;2023-01-25T02:03:09;2.20;86.50
15105;DHT22;7653;48.994;9.212;2023-01-25T02:05:45;2.20;88.20
15105;DHT22;7653;48.994;9.212;2023-01-25T02:08:13;2.30;87.40
15105;DHT22;7653;48.994;9.212;2023-01-25T02:10:40;2.30;87.50
15105;DHT22;7653;48.994;9.212;2023-01-25T02:13:06;2.30;87.00
15105;DHT22;7653;48.994;9.212;2023-01-25T02:15:44;2.30;87.00
15105;DHT22;7653;48.994;9.212;2023-01-25T02:18:10;2.30;86.10
15105;DHT22;7653;48.994;9.212;2023-01-25T02:20:45;2.40;86.70
15105;DHT22;7653;48.994;9.212;2023-01-25T02:26:05;2.30;86.70
15105;DHT22;7653;48.994;9.212;2023-01-25T02:31:06;2.40;86.90
15105;DHT22;7653;48.994;9.212;2023-01-25T02:33:32;2.30;86.80
15105;DHT22;7653;48.994;9.212;2023-01-25T02:38:23;2.30;87.80
15105;DHT22;7653;48.994;9.212;2023-01-25T02:41:05;2.30;87.10
15105;DHT22;7653;48.994;9.212;2023-01-25T02:43:33;2.30;86.90
15105;DHT22;7653;48.994;9.212;2023-01-25T02:46:22;2.40;87.00
15105;DHT22;7653;48.994;9.212;2023-01-25T02:48:50;2.50;86.80
15105;DHT22;7653;48.994;9.212;2023-01-25T02:51:16;2.30;85.60
15105;DHT22;7653;48.994;9.212;2023-01-25T02:53:41;2.30;87.00
15105;DHT22;7653;48.994;9.212;2023-01-25T02:56:07;2.30;86.70
15105;DHT22;7653;48.994;9.212;2023-01-25T02:58:32;2.30;86.50
15105;DHT22;7653;48.994;9.212;2023-01-25T03:00:59;2.20;87.30
15105;DHT22;7653;48.994;9.212;2023-01-25T03:03:24;2.40;88.30
15105;DHT22;7653;48.994;9.212;2023-01-25T03:05:50;2.40;86.90
15105;DHT22;7653;48.994;9.212;2023-01-25T03:08:16;2.30;87.10
15105;DHT22;7653;48.994;9.212;2023-01-25T03:10:41;2.40;87.40
15105;DHT22;7653;48.994;9.212;2023-01-25T03:13:07;2.50;86.30
15105;DHT22;7653;48.994;9.212;2023-01-25T03:15:32;2.40;85.20
15105;DHT22;7653;48.994;9.212;2023-01-25T03:17:58;2.30;85.10
15105;DHT22;7653;48.994;9.212;2023-01-25T03:20:24;2.40;85.60
15105;DHT22;7653;48.994;9.212;2023-01-25T03:22:49;2.40;85.40
15105;DHT22;7653;48.994;9.212;2023-01-25T03:25:15;2.40;84.40
15105;DHT22;7653;48.994;9.212;2023-01-25T03:27:41;2.40;84.60
15105;DHT22;7653;48.994;9.212;2023-01-25T03:30:08;2.40;83.70
15105;DHT22;7653;48.994;9.212;2023-01-25T03:32:33;2.30;82.20
15105;DHT22;7653;48.994;9.212;2023-01-25T03:34:59;2.30;82.20
15105;DHT22;7653;48.994;9.212;2023-01-25T03:37:25;2.40;82.60
15105;DHT22;7653;48.994;9.212;2023-01-25T03:39:56;2.40;82.30
15105;DHT22;7653;48.994;9.212;2023-01-25T03:42:21;2.40;80.70
15105;DHT22;7653;48.994;9.212;2023-01-25T03:44:47;2.40;80.30
15105;DHT22;7653;48.994;9.212;2023-01-25T03:47:13;2.40;79.20
15105;DHT22;7653;48.994;9.212;2023-01-25T03:49:39;2.40;80.20
15105;DHT22;7653;48.994;9.212;2023-01-25T03:52:04;2.30;79.70
15105;DHT22;7653;48.994;9.212;2023-01-25T03:54:30;2.30;79.40
15105;DHT22;7653;48.994;9.212;2023-01-25T03:56:56;2.40;78.10
15105;DHT22;7653;48.994;9.212;2023-01-25T03:59:21;2.50;76.70
15105;DHT22;7653;48.994;9.212;2023-01-25T04:01:47;2.50;76.00
15105;DHT22;7653;48.994;9.212;2023-01-25T04:04:13;2.40;77.10
15105;DHT22;7653;48.994;9.212;2023-01-25T04:06:38;2.40;78.40
15105;DHT22;7653;48.994;9.212;2023-01-25T04:09:04;2.40;78.80
15105;DHT22;7653;48.994;9.212;2023-01-25T04:11:30;2.40;79.60
15105;DHT22;7653;48.994;9.212;2023-01-25T04:13:55;2.40;78.30
15105;DHT22;7653;48.994;9.212;2023-01-25T04:16:21;2.40;77.80
15105;DHT22;7653;48.994;9.212;2023-01-25T04:18:46;2.40;75.00
15105;DHT22;7653;48.994;9.212;2023-01-25T04:21:12;2.40;74.90
15105;DHT22;7653;48.994;9.212;2023-01-25T04:23:38;2.50;74.20
15105;DHT22;7653;48.994;9.212;2023-01-25T04:26:05;2.50;73.60
15105;DHT22;7653;48.994;9.212;2023-01-25T04:28:32;2.50;73.20
15105;DHT22;7653;48.994;9.212;2023-01-25T04:30:58;2.60;73.20
15105;DHT22;7653;48.994;9.212;2023-01-25T04:33:24;2.50;73.20
15105;DHT22;7653;48.994;9.212;2023-01-25T04:35:50;2.40;73.20
15105;DHT22;7653;48.994;9.212;2023-01-25T04:38:17;2.40;73.80
15105;DHT22;7653;48.994;9.212;2023-01-25T04:40:43;2.30;74.10
15105;DHT22;7653;48.994;9.212;2023-01-25T04:43:10;2.40;74.30
15105;DHT22;7653;48.994;9.212;2023-01-25T04:45:36;2.40;73.20
15105;DHT22;7653;48.994;9.212;2023-01-25T04:48:05;2.40;73.20
15105;DHT22;7653;48.994;9.212;2023-01-25T04:50:35;2.40;73.20
15105;DHT22;7653;48.994;9.212;2023-01-25T04:53:01;2.50;70.50
15105;DHT22;7653;48.994;9.212;2023-01-25T04:55:27;2.60;68.80
15105;DHT22;7653;48.994;9.212;2023-01-25T04:57:52;2.40;69.50
15105;DHT22;7653;48.994;9.212;2023-01-25T05:00:18;2.40;69.40
15105;DHT22;7653;48.994;9.212;2023-01-25T05:02:44;2.40;70.40
15105;DHT22;7653;48.994;9.212;2023-01-25T05:05:10;2.40;70.00
15105;DHT22;7653;48.994;9.212;2023-01-25T05:07:36;2.30;70.40
15105;DHT22;7653;48.994;9.212;2023-01-25T05:10:02;2.40;69.20
15105;DHT22;7653;48.994;9.212;2023-01-25T05:12:28;2.40;68.00
15105;DHT22;7653;48.994;9.212;2023-01-25T05:14:53;2.40;68.50
15105;DHT22;7653;48.994;9.212;2023-01-25T05:17:19;2.50;68.40
15105;DHT22;7653;48.994;9.212;2023-01-25T05:19:45;2.40;68.30
15105;DHT22;7653;48.994;9.212;2023-01-25T05:22:14;2.30;68.80
15105;DHT22;7653;48.994;9.212;2023-01-25T05:24:41;2.30;69.00
15105;DHT22;7653;48.994;9.212;2023-01-25T05:27:08;2.30;70.10
15105;DHT22;7653;48.994;9.212;2023-01-25T05:29:38;2.30;70.40
15105;DHT22;7653;48.994;9.212;2023-01-25T05:32:06;2.30;70.50
15105;DHT22;7653;48.994;9.212;2023-01-25T05:34:32;2.40;70.80
15105;DHT22;7653;48.994;9.212;2023-01-25T05:36:58;2.30;70.00
15105;DHT22;7653;48.994;9.212;2023-01-25T05:39:24;2.30;70.10
15105;DHT22;7653;48.994;9.212;2023-01-25T05:41:50;2.30;70.70
15105;DHT22;7653;48.994;9.212;2023-01-25T05:44:16;2.30;71.60
15105;DHT22;7653;48.994;9.212;2023-01-25T05:46:41;2.20;71.80
15105;DHT22;7653;48.994;9.212;2023-01-25T05:49:07;2.10;71.80
15105;DHT22;7653;48.994;9.212;2023-01-25T05:51:33;2.20;71.70
15105;DHT22;7653;48.994;9.212;2023-01-25T05:54:00;2.20;71.00
15105;DHT22;7653;48.994;9.212;2023-01-25T05:56:26;2.10;71.10
15105;DHT22;7653;48.994;9.212;2023-01-25T05:58:56;2.10;72.90
15105;DHT22;7653;48.994;9.212;2023-01-25T06:01:22;2.20;71.90
15105;DHT22;7653;48.994;9.212;2023-01-25T06:03:48;2.20;72.10
15105;DHT22;7653;48.994;9.212;2023-01-25T06:06:14;2.30;71.70
15105;DHT22;7653;48.994;9.212;2023-01-25T06:08:39;2.20;71.40
15105;DHT22;7653;48.994;9.212;2023-01-25T06:11:17;2.20;70.50
15105;DHT22;7653;48.994;9.212;2023-01-25T06:13:43;2.10;71.70
15105;DHT22;7653;48.994;9.212;2023-01-25T06:16:09;2.10;71.70
15105;DHT22;7653;48.994;9.212;2023-01-25T06:18:35;2.20;71.10
15105;DHT22;7653;48.994;9.212;2023-01-25T06:21:02;2.20;71.10
15105;DHT22;7653;48.994;9.212;2023-01-25T06:23:27;2.20;71.50
15105;DHT22;7653;48.994;9.212;2023-01-25T06:26:02;2.10;70.10
15105;DHT22;7653;48.994;9.212;2023-01-25T06:28:30;2.20;69.90
15105;DHT22;7653;48.994;9.212;2023-01-25T06:33:31;2.20;69.20
15105;DHT22;7653;48.994;9.212;2023-01-25T06:36:05;2.20;69.50
15105;DHT22;7653;48.994;9.212;2023-01-25T06:38:31;2.20;68.70
15105;DHT22;7653;48.994;9.212;2023-01-25T06:40:59;2.20;69.00
15105;DHT22;7653;48.994;9.212;2023-01-25T06:43:24;2.30;68.40
15105;DHT22;7653;48.994;9.212;2023-01-25T06:45:50;2.30;68.00
15105;DHT22;7653;48.994;9.212;2023-01-25T06:48:16;2.30;68.40
15105;DHT22;7653;48.994;9.212;2023-01-25T06:50:41;2.40;68.70
15105;DHT22;7653;48.994;9.212;2023-01-25T06:53:07;2.40;67.90
15105;DHT22;7653;48.994;9.212;2023-01-25T06:55:32;2.50;67.30
15105;DHT22;7653;48.994;9.212;2023-01-25T06:57:59;2.30;67.10
15105;DHT22;7653;48.994;9.212;2023-01-25T07:00:25;2.30;67.60
15105;DHT22;7653;48.994;9.212;2023-01-25T07:02:51;2.40;67.40
15105;DHT22;7653;48.994;9.212;2023-01-25T07:05:16;2.40;66.70
15105;DHT22;7653;48.994;9.212;2023-01-25T07:07:45;2.40;66.10
15105;DHT22;7653;48.994;9.212;2023-01-25T07:10:11;2.40;65.90
15105;DHT22;7653;48.994;9.212;2023-01-25T07:12:36;2.30;66.60
15105;DHT22;7653;48.994;9.212;2023-01-25T07:15:02;2.20;67.00
15105;DHT22;7653;48.994;9.212;2023-01-25T07:17:28;2.10;68.50
15105;DHT22;7653;48.994;9.212;2023-01-25T07:19:53;2.20;69.10
15105;DHT22;7653;48.994;9.212;2023-01-25T07:22:19;2.20;68.70
15105;DHT22;7653;48.994;9.212;2023-01-25T07:24:45;2.10;69.60
15105;DHT22;7653;48.994;9.212;2023-01-25T07:27:15;2.20;69.30
15105;DHT22;7653;48.994;9.212;2023-01-25T07:29:41;2.10;69.90
15105;DHT22;7653;48.994;9.212;2023-01-25T07:32:06;2.20;70.60
15105;DHT22;7653;48.994;9.212;2023-01-25T07:34:32;2.20;68.40
15105;DHT22;7653;48.994;9.212;2023-01-25T07:36:58;2.20;68.60
15105;DHT22;7653;48.994;9.212;2023-01-25T07:39:23;2.40;68.00
15105;DHT22;7653;48.994;9.212;2023-01-25T07:41:52;2.40;66.40
15105;DHT22;7653;48.994;9.212;2023-01-25T07:44:18;2.30;66.00
15105;DHT22;7653;48.994;9.212;2023-01-25T07:46:43;2.40;66.90
15105;DHT22;7653;48.994;9.212;2023-01-25T07:49:09;2.30;66.80
15105;DHT22;7653;48.994;9.212;2023-01-25T07:51:34;2.30;68.20
15105;DHT22;7653;48.994;9.212;2023-01-25T07:54:02;2.30;67.50
15105;DHT22;7653;48.994;9.212;2023-01-25T07:56:30;2.30;68.00
15105;DHT22;7653;48.994;9.212;2023-01-25T07:58:57;2.30;66.50
15105;DHT22;7653;48.994;9.212;2023-01-25T08:01:26;2.30;67.40
15105;DHT22;7653;48.994;9.212;2023-01-25T08:03:53;2.30;66.70
15105;DHT22;7653;48.994;9.212;2023-01-25T08:06:31;2.20;66.40
15105;DHT22;7653;48.994;9.212;2023-01-25T08:09:10;2.30;67.20
15105;DHT22;7653;48.994;9.212;2023-01-25T08:11:36;2.40;66.70
15105;DHT22;7653;48.994;9.212;2023-01-25T08:14:02;2.30;66.50
15105;DHT22;7653;48.994;9.212;2023-01-25T08:16:29;2.30;67.20
15105;DHT22;7653;48.994;9.212;2023-01-25T08:18:57;2.30;66.80
15105;DHT22;7653;48.994;9.212;2023-01-25T08:21:25;2.30;66.10
15105;DHT22;7653;48.994;9.212;2023-01-25T08:24:04;2.30;65.40
15105;DHT22;7653;48.994;9.212;2023-01-25T08:26:30;2.40;65.30
15105;DHT22;7653;48.994;9.212;2023-01-25T08:28:56;2.30;65.00
15105;DHT22;7653;48.994;9.212;2023-01-25T08:31:25;2.40;65.40
15105;DHT22;7653;48.994;9.212;2023-01-25T08:33:52;2.40;64.70
15105;DHT22;7653;48.994;9.212;2023-01-25T08:36:18;2.50;65.20
15105;DHT22;7653;48.994;9.212;2023-01-25T08:38:45;2.60;65.20
15105;DHT22;7653;48.994;9.212;2023-01-25T08:41:14;2.50;63.90
15105;DHT22;7653;48.994;9.212;2023-01-25T08:43:41;2.40;64.00
15105;DHT22;7653;48.994;9.212;2023-01-25T08:46:08;2.40;65.10
15105;DHT22;7653;48.994;9.212;2023-01-25T08:48:34;2.40;65.80
15105;DHT22;7653;48.994;9.212;2023-01-25T08:51:00;2.60;66.30
15105;DHT22;7653;48.994;9.212;2023-01-25T08:53:31;2.60;64.60
15105;DHT22;7653;48.994;9.212;2023-01-25T08:56:09;2.60;64.00
15105;DHT22;7653;48.994;9.212;2023-01-25T08:58:37;2.60;64.00
15105;DHT22;7653;48.994;9.212;2023-01-25T09:01:06;2.60;63.80
15105;DHT22;7653;48.994;9.212;2023-01-25T09:03:43;2.40;63.80
15105;DHT22;7653;48.994;9.212;2023-01-25T09:06:10;2.30;65.40
15105;DHT22;7653;48.994;9.212;2023-01-25T09:08:36;2.40;65.40
15105;DHT22;7653;48.994;9.212;2023-01-25T09:11:18;2.50;65.20
15105;DHT22;7653;48.994;9.212;2023-01-25T09:13:44;2.50;64.60
15105;DHT22;7653;48.994;9.212;2023-01-25T09:16:13;2.50;63.90
15105;DHT22;7653;48.994;9.212;2023-01-25T09:18:40;2.50;63.20
15105;DHT22;7653;48.994;9.212;2023-01-25T09:23:33;2.70;62.80
15105;DHT22;7653;48.994;9.212;2023-01-25T09:25:59;2.80;62.80
15105;DHT22;7653;48.994;9.212;2023-01-25T09:28:26;2.70;61.00
15105;DHT22;7653;48.994;9.212;2023-01-25T09:31:02;2.60;60.70
15105;DHT22;7653;48.994;9.212;2023-01-25T09:33:32;2.70;59.90
15105;DHT22;7653;48.994;9.212;2023-01-25T09:35:57;2.60;60.10
15105;DHT22;7653;48.994;9.212;2023-01-25T09:38:23;2.70;60.70
15105;DHT22;7653;48.994;9.212;2023-01-25T09:54:39;2.60;60.10
15105;DHT22;7653;48.994;9.212;2023-01-25T09:57:37;2.60;59.00
15105;DHT22;7653;48.994;9.212;2023-01-25T10:00:32;2.50;58.80
15105;DHT22;7653;48.994;9.212;2023-01-25T10:06:00;2.60;58.60
15105;DHT22;7653;48.994;9.212;2023-01-25T10:11:42;2.70;59.30
15105;DHT22;7653;48.994;9.212;2023-01-25T10:14:16;2.80;59.20
15105;DHT22;7653;48.994;9.212;2023-01-25T10:22:20;2.30;59.10
15105;DHT22;7653;48.994;9.212;2023-01-25T10:30:28;2.30;60.70
15105;DHT22;7653;48.994;9.212;2023-01-25T10:33:00;2.40;60.80
15105;DHT22;7653;48.994;9.212;2023-01-25T10:35:29;2.40;59.20
15105;DHT22;7653;48.994;9.212;2023-01-25T10:38:06;2.40;58.30
15105;DHT22;7653;48.994;9.212;2023-01-25T10:40:44;2.30;57.90
15105;DHT22;7653;48.994;9.212;2023-01-25T10:43:18;2.40;58.40
15105;DHT22;7653;48.994;9.212;2023-01-25T10:45:44;2.40;57.30
15105;DHT22;7653;48.994;9.212;2023-01-25T10:48:18;2.30;57.80
15105;DHT22;7653;48.994;9.212;2023-01-25T10:50:47;2.20;59.30
15105;DHT22;7653;48.994;9.212;2023-01-25T10:53:32;2.30;59.50
15105;DHT22;7653;48.994;9.212;2023-01-25T10:56:26;2.30;58.70
15105;DHT22;7653;48.994;9.212;2023-01-25T10:59:06;2.30;59.00
15105;DHT22;7653;48.994;9.212;2023-01-25T11:01:34;2.30;59.70
15105;DHT22;7653;48.994;9.212;2023-01-25T11:04:01;2.40;58.50
15105;DHT22;7653;48.994;9.212;2023-01-25T11:06:30;2.40;59.30
15105;DHT22;7653;48.994;9.212;2023-01-25T11:08:56;2.50;57.80
15105;DHT22;7653;48.994;9.212;2023-01-25T11:13:56;2.70;57.40
15105;DHT22;7653;48.994;9.212;2023-01-25T11:16:29;2.80;56.50
15105;DHT22;7653;48.994;9.212;2023-01-25T11:18:56;2.80;55.90
15105;DHT22;7653;48.994;9.212;2023-01-25T11:21:31;2.80;54.90
15105;DHT22;7653;48.994;9.212;2023-01-25T11:24:15;2.90;55.50
15105;DHT22;7653;48.994;9.212;2023-01-25T11:26:42;2.90;54.90
15105;DHT22;7653;48.994;9.212;2023-01-25T11:31:46;3.00;55.00
15105;DHT22;7653;48.994;9.212;2023-01-25T11:34:17;2.90;54.90
15105;DHT22;7653;48.994;9.212;2023-01-25T11:45:18;2.50;56.40
15105;DHT22;7653;48.994;9.212;2023-01-25T11:48:12;2.60;56.90
15105;DHT22;7653;48.994;9.212;2023-01-25T11:50:44;2.50;56.50
15105;DHT22;7653;48.994;9.212;2023-01-25T11:53:34;2.40;57.10
15105;DHT22;7653;48.994;9.212;2023-01-25T12:07:03;2.80;55.20
15105;DHT22;7653;48.994;9.212;2023-01-25T12:15:05;2.90;54.90
15105;DHT22;7653;48.994;9.212;2023-01-25T12:23:13;3.00;55.00
15105;DHT22;7653;48.994;9.212;2023-01-25T12:28:51;3.10;53.60
15105;DHT22;7653;48.994;9.212;2023-01-25T12:31:29;2.90;54.20
15105;DHT22;7653;48.994;9.212;2023-01-25T12:34:00;3.00;55.00
15105;DHT22;7653;48.994;9.212;2023-01-25T12:36:45;2.70;54.70
15105;DHT22;7653;48.994;9.212;2023-01-25T12:39:25;2.80;56.20
15105;DHT22;7653;48.994;9.212;2023-01-25T12:44:36;2.70;55.90
15105;DHT22;7653;48.994;9.212;2023-01-25T12:55:00;2.90;54.90
15105;DHT22;7653;48.994;9.212;2023-01-25T12:57:28;3.10;55.10
15105;DHT22;7653;48.994;9.212;2023-01-25T13:13:44;2.90;54.50
15105;DHT22;7653;48.994;9.212;2023-01-25T13:18:57;2.60;54.60
15105;DHT22;7653;48.994;9.212;2023-01-25T13:21:43;2.50;56.20
15105;DHT22;7653;48.994;9.212;2023-01-25T13:26:49;2.70;55.90
15105;DHT22;7653;48.994;9.212;2023-01-25T13:35:01;2.80;56.60
15105;DHT22;7653;48.994;9.212;2023-01-25T13:37:28;2.80;54.90
15105;DHT22;7653;48.994;9.212;2023-01-25T13:40:01;2.50;57.60
15105;DHT22;7653;48.994;9.212;2023-01-25T13:42:32;2.70;57.70
15105;DHT22;7653;48.994;9.212;2023-01-25T13:45:02;2.90;57.60
15105;DHT22;7653;48.994;9.212;2023-01-25T13:47:33;2.60;56.80
15105;DHT22;7653;48.994;9.212;2023-01-25T13:50:15;2.70;57.80
15105;DHT22;7653;48.994;9.212;2023-01-25T13:53:03;2.70;57.70
15105;DHT22;7653;48.994;9.212;2023-01-25T13:55:42;2.70;58.40
15105;DHT22;7653;48.994;9.212;2023-01-25T13:58:17;2.80;57.50
15105;DHT22;7653;48.994;9.212;2023-01-25T14:03:13;2.50;58.80
15105;DHT22;7653;48.994;9.212;2023-01-25T14:05:39;2.70;59.40
15105;DHT22;7653;48.994;9.212;2023-01-25T14:08:12;2.60;59.30
15105;DHT22;7653;48.994;9.212;2023-01-25T14:10:43;2.50;58.90
15105;DHT22;7653;48.994;9.212;2023-01-25T14:13:13;2.60;60.40
15105;DHT22;7653;48.994;9.212;2023-01-25T14:15:39;2.50;59.90
15105;DHT22;7653;48.994;9.212;2023-01-25T14:18:14;2.50;60.00
15105;DHT22;7653;48.994;9.212;2023-01-25T14:20:50;2.40;60.40
15105;DHT22;7653;48.994;9.212;2023-01-25T14:23:25;2.50;61.20
15105;DHT22;7653;48.994;9.212;2023-01-25T14:25:52;2.40;61.20
15105;DHT22;7653;48.994;9.212;2023-01-25T14:28:19;2.50;61.30
15105;DHT22;7653;48.994;9.212;2023-01-25T14:30:50;2.50;61.00
15105;DHT22;7653;48.994;9.212;2023-01-25T14:33:32;2.60;61.10
15105;DHT22;7653;48.994;9.212;2023-01-25T14:36:08;2.50;59.00
15105;DHT22;7653;48.994;9.212;2023-01-25T14:38:38;2.60;60.20
15105;DHT22;7653;48.994;9.212;2023-01-25T14:43:39;2.70;60.90
15105;DHT22;7653;48.994;9.212;2023-01-25T14:48:46;2.50;62.30
15105;DHT22;7653;48.994;9.212;2023-01-25T14:51:27;2.60;62.70
15105;DHT22;7653;48.994;9.212;2023-01-25T14:54:03;2.60;61.60
15105;DHT22;7653;48.994;9.212;2023-01-25T14:59:14;2.60;62.20
15105;DHT22;7653;48.994;9.212;2023-01-25T15:01:43;2.50;62.00
15105;DHT22;7653;48.994;9.212;2023-01-25T15:04:11;2.60;64.00
15105;DHT22;7653;48.994;9.212;2023-01-25T15:06:51;2.70;61.10
15105;DHT22;7653;48.994;9.212;2023-01-25T15:14:52;2.60;60.90
15105;DHT22;7653;48.994;9.212;2023-01-25T15:17:45;2.80;59.40
15105;DHT22;7653;48.994;9.212;2023-01-25T15:23:02;2.30;61.00
15105;DHT22;7653;48.994;9.212;2023-01-25T15:25:30;2.50;62.80
15105;DHT22;7653;48.994;9.212;2023-01-25T15:27:55;2.70;61.60
15105;DHT22;7653;48.994;9.212;2023-01-25T15:30:21;2.70;60.10
15105;DHT22;7653;48.994;9.212;2023-01-25T15:32:48;2.40;60.10
15105;DHT22;7653;48.994;9.212;2023-01-25T15:35:18;2.40;62.40
15105;DHT22;7653;48.994;9.212;2023-01-25T15:37:45;2.50;63.20
15105;DHT22;7653;48.994;9.212;2023-01-25T15:40:11;2.60;62.60
15105;DHT22;7653;48.994;9.212;2023-01-25T15:42:38;2.70;63.20
15105;DHT22;7653;48.994;9.212;2023-01-25T15:45:04;2.70;63.30
15105;DHT22;7653;48.994;9.212;2023-01-25T15:47:31;2.80;60.80
15105;DHT22;7653;48.994;9.212;2023-01-25T15:49:57;2.60;60.40
15105;DHT22;7653;48.994;9.212;2023-01-25T15:52:23;2.50;61.60
15105;DHT22;7653;48.994;9.212;2023-01-25T15:54:48;2.50;62.20
15105;DHT22;7653;48.994;9.212;2023-01-25T15:57:26;2.50;63.90
15105;DHT22;7653;48.994;9.212;2023-01-25T15:59:53;2.50;63.90
15105;DHT22;7653;48.994;9.212;2023-01-25T16:02:20;2.60;64.00
15105;DHT22;7653;48.994;9.212;2023-01-25T16:04:46;2.60;64.00
15105;DHT22;7653;48.994;9.212;2023-01-25T16:07:22;2.60;64.00
15105;DHT22;7653;48.994;9.212;2023-01-25T16:09:48;2.60;64.00
15105;DHT22;7653;48.994;9.212;2023-01-25T16:12:14;2.50;63.90
15105;DHT22;7653;48.994;9.212;2023-01-25T16:14:40;2.70;64.10
15105;DHT22;7653;48.994;9.212;2023-01-25T16:17:06;2.60;63.70
15105;DHT22;7653;48.994;9.212;2023-01-25T16:19:32;2.50;63.90
15105;DHT22;7653;48.994;9.212;2023-01-25T16:21:58;2.60;64.00
15105;DHT22;7653;48.994;9.212;2023-01-25T16:24:23;2.60;63.40
15105;DHT22;7653;48.994;9.212;2023-01-25T16:26:54;2.60;64.00
15105;DHT22;7653;48.994;9.212;2023-01-25T16:29:27;2.70;64.10
15105;DHT22;7653;48.994;9.212;2023-01-25T16:31:53;2.70;64.80
15105;DHT22;7653;48.994;9.212;2023-01-25T16:34:19;2.50;63.80
15105;DHT22;7653;48.994;9.212;2023-01-25T16:36:45;2.50;63.90
15105;DHT22;7653;48.994;9.212;2023-01-25T16:39:17;2.60;64.00
15105;DHT22;7653;48.994;9.212;2023-01-25T16:41:47;2.60;63.90
15105;DHT22;7653;48.994;9.212;2023-01-25T16:44:13;2.70;64.10
15105;DHT22;7653;48.994;9.212;2023-01-25T16:46:39;2.70;63.60
15105;DHT22;7653;48.994;9.212;2023-01-25T16:49:04;2.70;64.10
15105;DHT22;7653;48.994;9.212;2023-01-25T16:51:33;2.60;63.20
15105;DHT22;7653;48.994;9.212;2023-01-25T16:54:00;2.60;61.70
15105;DHT22;7653;48.994;9.212;2023-01-25T16:56:28;2.40;63.80
15105;DHT22;7653;48.994;9.212;2023-01-25T16:58:56;2.50;63.90
15105;DHT22;7653;48.994;9.212;2023-01-25T17:01:23;2.60;64.00
15105;DHT22;7653;48.994;9.212;2023-01-25T17:03:49;2.60;63.50
15105;DHT22;7653;48.994;9.212;2023-01-25T17:06:23;2.60;64.00
15105;DHT22;7653;48.994;9.212;2023-01-25T17:08:50;2.50;63.90
15105;DHT22;7653;48.994;9.212;2023-01-25T17:11:16;2.60;64.00
15105;DHT22;7653;48.994;9.212;2023-01-25T17:13:57;2.60;64.00
15105;DHT22;7653;48.994;9.212;2023-01-25T17:16:27;2.50;63.90
15105;DHT22;7653;48.994;9.212;2023-01-25T17:19:02;2.50;63.90
15105;DHT22;7653;48.994;9.212;2023-01-25T17:21:29;2.40;63.80
15105;DHT22;7653;48.994;9.212;2023-01-25T17:23:56;2.40;65.00
15105;DHT22;7653;48.994;9.212;2023-01-25T17:26:23;2.40;66.20
15105;DHT22;7653;48.994;9.212;2023-01-25T17:28:49;2.40;65.90
15105;DHT22;7653;48.994;9.212;2023-01-25T17:31:19;2.40;66.80
15105;DHT22;7653;48.994;9.212;2023-01-25T17:33:45;2.40;66.50
15105;DHT22;7653;48.994;9.212;2023-01-25T17:36:11;2.40;66.20
15105;DHT22;7653;48.994;9.212;2023-01-25T17:38:38;2.30;65.90
15105;DHT22;7653;48.994;9.212;2023-01-25T17:41:09;2.20;64.50
15105;DHT22;7653;48.994;9.212;2023-01-25T17:43:35;2.20;66.20
15105;DHT22;7653;48.994;9.212;2023-01-25T17:48:37;2.10;66.40
15105;DHT22;7653;48.994;9.212;2023-01-25T17:51:03;2.30;66.40
15105;DHT22;7653;48.994;9.212;2023-01-25T17:53:29;2.00;66.80
15105;DHT22;7653;48.994;9.212;2023-01-25T17:55:55;2.00;68.80
15105;DHT22;7653;48.994;9.212;2023-01-25T17:58:25;1.90;69.80
15105;DHT22;7653;48.994;9.212;2023-01-25T18:00:50;2.00;69.60
15105;DHT22;7653;48.994;9.212;2023-01-25T18:03:16;1.80;68.70
15105;DHT22;7653;48.994;9.212;2023-01-25T18:05:42;2.00;69.80
15105;DHT22;7653;48.994;9.212;2023-01-25T18:08:09;2.10;69.60
15105;DHT22;7653;48.994;9.212;2023-01-25T18:10:37;1.90;69.10
15105;DHT22;7653;48.994;9.212;2023-01-25T18:13:02;1.80;70.70
15105;DHT22;7653;48.994;9.212;2023-01-25T18:15:29;1.80;70.30
15105;DHT22;7653;48.994;9.212;2023-01-25T18:17:55;1.90;70.90
15105;DHT22;7653;48.994;9.212;2023-01-25T18:20:20;2.00;70.50
15105;DHT22;7653;48.994;9.212;2023-01-25T18:22:46;2.20;69.50
15105;DHT22;7653;48.994;9.212;2023-01-25T18:27:57;2.10;68.30
15105;DHT22;7653;48.994;9.212;2023-01-25T18:30:33;2.30;68.40
15105;DHT22;7653;48.994;9.212;2023-01-25T18:33:00;2.40;68.10
15105;DHT22;7653;48.994;9.212;2023-01-25T18:35:27;2.40;67.80
15105;DHT22;7653;48.994;9.212;2023-01-25T18:37:53;2.50;67.40
15105;DHT22;7653;48.994;9.212;2023-01-25T18:40:18;2.50;65.20
15105;DHT22;7653;48.994;9.212;2023-01-25T18:42:44;2.50;64.00
15105;DHT22;7653;48.994;9.212;2023-01-25T18:45:11;2.40;63.80